createdAt,value
2019-05-15T00:02:04.247Z,31.27
2019-05-15T00:04:35.739Z,30.92
2019-05-15T00:07:08.904Z,30.92
2019-05-15T00:09:41.932Z,31.08
2019-05-15T00:12:14.261Z,31.16
2019-05-15T00:14:48.301Z,31.08
2019-05-15T00:17:19.738Z,31.03
2019-05-15T00:19:51.834Z,30.98
2019-05-15T00:22:23.439Z,30.90
2019-05-15T00:24:58.059Z,31.08
2019-05-15T00:27:29.706Z,31.22
2019-05-15T00:30:01.482Z,31.96
2019-05-15T00:32:33.220Z,31.96
2019-05-15T00:35:05.513Z,31.88
2019-05-15T00:37:38.714Z,31.86
2019-05-15T00:40:11.517Z,31.88
2019-05-15T00:42:43.187Z,31.89
2019-05-15T00:45:15.719Z,31.94
2019-05-15T00:47:48.665Z,31.94
2019-05-15T00:50:20.442Z,31.74
2019-05-15T00:52:52.278Z,31.74
2019-05-15T00:55:23.912Z,32.06
2019-05-15T00:57:55.600Z,32.06
2019-05-15T01:00:41.447Z,32.06
2019-05-15T01:03:13.741Z,32.06
2019-05-15T01:05:45.332Z,32.14
2019-05-15T01:08:18.912Z,32.14
2019-05-15T01:10:50.470Z,32.18
2019-05-15T01:13:22.598Z,32.25
2019-05-15T01:15:54.246Z,32.29
2019-05-15T01:18:25.674Z,32.47
2019-05-15T01:21:00.009Z,32.47
2019-05-15T01:23:31.776Z,32.63
2019-05-15T01:26:03.323Z,32.57
2019-05-15T01:28:35.001Z,32.51
2019-05-15T01:31:08.544Z,32.55
2019-05-15T01:33:40.107Z,32.57
2019-05-15T01:36:11.967Z,32.57
2019-05-15T01:38:43.426Z,32.75
2019-05-15T01:41:15.142Z,32.82
2019-05-15T01:43:48.936Z,32.84
2019-05-15T01:46:20.814Z,32.84
2019-05-15T01:48:53.390Z,33.21
2019-05-15T01:51:25.192Z,33.36
2019-05-15T01:53:58.382Z,33.19
2019-05-15T01:56:30.233Z,33.19
2019-05-15T01:59:01.831Z,33.27
2019-05-15T02:01:34.765Z,33.27
2019-05-15T02:04:08.276Z,33.68
2019-05-15T02:06:39.857Z,33.83
2019-05-15T02:09:11.547Z,33.83
2019-05-15T02:11:43.281Z,33.86
2019-05-15T02:14:15.576Z,33.95
2019-05-15T02:16:48.396Z,34.00
2019-05-15T02:19:20.375Z,34.00
2019-05-15T02:21:51.924Z,34.12
2019-05-15T02:24:23.458Z,34.23
2019-05-15T02:26:54.927Z,34.23
2019-05-15T02:29:28.567Z,34.37
2019-05-15T02:32:00.718Z,34.47
2019-05-15T02:34:32.621Z,34.65
2019-05-15T02:37:04.442Z,34.65
2019-05-15T02:39:38.918Z,34.80
2019-05-15T02:42:10.053Z,34.72
2019-05-15T02:44:42.406Z,34.72
2019-05-15T02:47:13.880Z,34.96
2019-05-15T02:49:48.407Z,34.70
2019-05-15T02:52:19.938Z,34.52
2019-05-15T02:54:52.161Z,34.52
2019-05-15T02:57:23.562Z,34.94
2019-05-15T02:59:55.350Z,35.35
2019-05-15T03:02:28.674Z,35.13
2019-05-15T03:05:01.557Z,35.05
2019-05-15T03:07:33.253Z,35.05
2019-05-15T03:10:04.876Z,35.02
2019-05-15T03:12:40.168Z,35.26
2019-05-15T03:15:10.124Z,35.26
2019-05-15T03:17:41.766Z,35.42
2019-05-15T03:20:13.673Z,35.07
2019-05-15T03:22:45.454Z,34.90
2019-05-15T03:25:19.167Z,34.90
2019-05-15T03:27:50.990Z,35.28
2019-05-15T03:30:31.860Z,35.67
2019-05-15T03:33:07.681Z,35.36
2019-05-15T03:35:42.744Z,35.67
2019-05-15T03:38:10.958Z,35.67
2019-05-15T03:40:42.728Z,34.99
2019-05-15T03:43:14.371Z,35.54
2019-05-15T03:45:49.348Z,35.75
2019-05-15T03:48:20.077Z,36.00
2019-05-15T03:50:51.811Z,35.88
2019-05-15T03:53:23.732Z,36.21
2019-05-15T03:55:58.701Z,36.00
2019-05-15T03:58:29.337Z,35.51
2019-05-15T04:01:00.949Z,35.46
2019-05-15T04:03:32.549Z,35.63
2019-05-15T04:06:04.598Z,35.93
2019-05-15T04:08:38.955Z,35.93
2019-05-15T04:11:10.996Z,36.04
2019-05-15T04:13:42.802Z,36.36
2019-05-15T04:16:15.028Z,36.36
2019-05-15T04:18:49.038Z,36.22
2019-05-15T04:21:20.407Z,36.33
2019-05-15T04:23:53.413Z,36.33
2019-05-15T04:26:28.650Z,36.24
2019-05-15T04:29:01.521Z,36.19
2019-05-15T04:31:50.782Z,36.20
2019-05-15T04:34:09.192Z,36.47
2019-05-15T04:36:44.241Z,36.56
2019-05-15T04:39:13.638Z,36.66
2019-05-15T04:41:45.318Z,36.66
2019-05-15T04:44:19.313Z,36.74
2019-05-15T04:46:50.838Z,35.20
2019-05-15T04:49:22.374Z,36.53
2019-05-15T04:51:54.027Z,36.53
2019-05-15T04:54:25.540Z,36.65
2019-05-15T04:56:59.398Z,36.65
2019-05-15T04:59:30.553Z,36.64
2019-05-15T05:02:16.219Z,36.45
2019-05-15T05:04:38.876Z,36.45
2019-05-15T05:07:10.989Z,36.52
2019-05-15T05:09:43.211Z,36.33
2019-05-15T05:12:14.808Z,36.19
2019-05-15T05:14:48.398Z,36.19
2019-05-15T05:17:20.202Z,36.51
2019-05-15T05:19:52.156Z,36.56
2019-05-15T05:22:24.178Z,36.57
2019-05-15T05:24:58.365Z,36.84
2019-05-15T05:27:29.491Z,36.77
2019-05-15T05:30:00.961Z,36.77
2019-05-15T05:32:35.251Z,35.98
2019-05-15T05:35:08.194Z,35.98
2019-05-15T05:37:39.768Z,36.84
2019-05-15T05:40:11.601Z,36.98
2019-05-15T05:42:43.137Z,37.00
2019-05-15T05:45:15.036Z,37.00
2019-05-15T05:47:48.593Z,36.76
2019-05-15T05:50:38.456Z,36.96
2019-05-15T05:53:09.559Z,36.96
2019-05-15T05:55:41.078Z,37.03
2019-05-15T05:58:12.712Z,34.97
2019-05-15T06:00:48.575Z,34.97
2019-05-15T06:03:19.969Z,35.75
2019-05-15T06:05:51.591Z,34.78
2019-05-15T06:08:23.081Z,34.87
2019-05-15T06:10:54.581Z,34.87
2019-05-15T06:13:26.254Z,35.17
2019-05-15T06:15:59.073Z,35.17
2019-05-15T06:18:31.362Z,35.45
2019-05-15T06:21:09.042Z,35.45
2019-05-15T06:23:45.815Z,35.16
2019-05-15T06:26:15.221Z,35.40
2019-05-15T06:28:49.063Z,35.38
2019-05-15T06:31:20.041Z,35.30
2019-05-15T06:33:51.962Z,35.00
2019-05-15T06:36:23.893Z,35.15
2019-05-15T06:38:55.756Z,35.15
2019-05-15T06:41:28.624Z,35.27
2019-05-15T06:44:01.233Z,35.32
2019-05-15T06:46:39.056Z,35.28
2019-05-15T06:49:10.333Z,35.28
2019-05-15T06:51:42.019Z,34.47
2019-05-15T06:54:13.853Z,34.72
2019-05-15T06:56:45.695Z,34.78
2019-05-15T06:59:18.014Z,34.82
2019-05-15T07:01:49.816Z,34.92
2019-05-15T07:04:22.146Z,34.92
2019-05-15T07:06:53.874Z,34.62
2019-05-15T07:09:28.381Z,34.74
2019-05-15T07:11:59.603Z,34.74
2019-05-15T07:14:31.247Z,35.06
2019-05-15T07:17:03.547Z,34.91
2019-05-15T07:19:35.067Z,34.91
2019-05-15T07:22:09.181Z,34.70
2019-05-15T07:24:40.973Z,34.65
2019-05-15T07:27:12.898Z,35.02
2019-05-15T07:29:44.662Z,35.49
2019-05-15T07:32:19.046Z,35.13
2019-05-15T07:34:49.964Z,35.13
2019-05-15T07:37:21.631Z,34.87
2019-05-15T07:39:53.479Z,34.59
2019-05-15T07:42:25.183Z,34.59
2019-05-15T07:45:04.475Z,35.01
2019-05-15T07:47:38.661Z,35.01
2019-05-15T07:50:10.975Z,35.29
2019-05-15T07:52:42.942Z,35.45
2019-05-15T07:55:14.700Z,35.14
2019-05-15T07:57:49.577Z,35.19
2019-05-15T08:00:23.785Z,35.43
2019-05-15T08:02:59.147Z,35.50
2019-05-15T08:05:33.911Z,35.50
2019-05-15T08:08:08.764Z,35.62
2019-05-15T08:10:40.509Z,35.62
2019-05-15T08:13:12.141Z,34.94
2019-05-15T08:15:43.848Z,35.46
2019-05-15T08:18:17.842Z,35.62
2019-05-15T08:20:49.560Z,35.11
2019-05-15T08:23:21.826Z,35.30
2019-05-15T08:25:53.519Z,35.08
2019-05-15T08:28:24.986Z,35.08
2019-05-15T08:30:58.563Z,35.17
2019-05-15T08:33:30.399Z,35.52
2019-05-15T08:36:02.302Z,35.47
2019-05-15T08:38:33.913Z,35.47
2019-05-15T08:41:11.174Z,35.73
2019-05-15T08:43:40.269Z,35.44
2019-05-15T08:46:11.820Z,34.95
2019-05-15T08:48:43.537Z,35.32
2019-05-15T08:51:15.936Z,35.32
2019-05-15T08:53:48.794Z,35.73
2019-05-15T08:56:20.541Z,35.73
2019-05-15T08:58:52.561Z,35.84
2019-05-15T09:01:24.429Z,35.89
2019-05-15T09:03:58.028Z,35.92
2019-05-15T09:06:29.513Z,35.92
2019-05-15T09:09:00.934Z,35.90
2019-05-15T09:11:40.393Z,36.03
2019-05-15T09:14:18.645Z,36.18
2019-05-15T09:16:51.013Z,36.18
2019-05-15T09:19:22.890Z,36.08
2019-05-15T09:21:55.201Z,36.15
2019-05-15T09:24:28.644Z,36.33
2019-05-15T09:27:00.653Z,36.13
2019-05-15T09:29:32.614Z,36.00
2019-05-15T09:32:04.929Z,36.24
2019-05-15T09:34:48.061Z,36.24
2019-05-15T09:37:10.410Z,36.14
2019-05-15T09:39:42.295Z,36.10
2019-05-15T09:42:14.435Z,36.12
2019-05-15T09:44:48.638Z,36.39
2019-05-15T09:47:29.483Z,36.23
2019-05-15T09:50:05.265Z,36.23
2019-05-15T09:52:40.108Z,36.27
2019-05-15T09:55:14.351Z,36.28
2019-05-15T09:57:49.056Z,36.25
2019-05-15T10:00:22.112Z,36.33
2019-05-15T10:03:00.142Z,36.32
2019-05-15T10:05:35.214Z,36.35
2019-05-15T10:08:08.948Z,36.35
2019-05-15T10:10:42.061Z,36.45
2019-05-15T10:13:14.880Z,36.46
2019-05-15T10:15:50.541Z,36.60
2019-05-15T10:18:28.333Z,36.42
2019-05-15T10:21:01.492Z,36.62
2019-05-15T10:23:34.157Z,36.62
2019-05-15T10:26:13.226Z,36.62
2019-05-15T10:28:41.806Z,36.60
2019-05-15T10:31:14.389Z,36.60
2019-05-15T10:33:49.184Z,36.64
2019-05-15T10:36:20.947Z,36.57
2019-05-15T10:38:55.315Z,36.64
2019-05-15T10:41:28.484Z,36.72
2019-05-15T10:44:00.830Z,36.48
2019-05-15T10:46:34.790Z,36.47
2019-05-15T10:49:08.637Z,36.50
2019-05-15T10:51:41.946Z,36.57
2019-05-15T10:54:14.714Z,36.57
2019-05-15T10:56:48.042Z,36.67
2019-05-15T10:59:20.697Z,36.75
2019-05-15T11:01:53.500Z,36.77
2019-05-15T11:04:25.904Z,36.85
2019-05-15T11:06:58.320Z,36.59
2019-05-15T11:09:33.540Z,36.73
2019-05-15T11:12:05.975Z,36.73
2019-05-15T11:14:38.349Z,36.64
2019-05-15T11:17:10.355Z,36.64
2019-05-15T11:19:42.829Z,36.66
2019-05-15T11:22:15.056Z,36.72
2019-05-15T11:24:50.861Z,36.53
2019-05-15T11:27:22.315Z,36.48
2019-05-15T11:29:55.114Z,36.48
2019-05-15T11:32:29.402Z,36.49
2019-05-15T11:35:04.356Z,36.56
2019-05-15T11:37:35.258Z,36.49
2019-05-15T11:40:12.174Z,36.45
2019-05-15T11:42:44.731Z,36.45
2019-05-15T11:45:20.550Z,36.61
2019-05-15T11:48:15.788Z,36.59
2019-05-15T11:53:39.496Z,36.65
2019-05-15T11:56:29.557Z,36.62
2019-05-15T11:59:04.332Z,36.59
2019-05-15T12:01:38.440Z,36.54
2019-05-15T12:04:26.412Z,36.54
2019-05-15T12:06:58.251Z,36.51
2019-05-15T12:09:24.046Z,36.34
2019-05-15T12:11:56.360Z,36.43
2019-05-15T12:14:29.659Z,36.44
2019-05-15T12:17:11.411Z,36.44
2019-05-15T12:19:38.974Z,36.62
2019-05-15T12:22:11.009Z,36.57
2019-05-15T12:24:42.994Z,36.51
2019-05-15T12:27:18.203Z,36.51
2019-05-15T12:29:49.410Z,36.74
2019-05-15T12:34:55.250Z,36.55
2019-05-15T12:37:28.499Z,36.58
2019-05-15T13:00:38.287Z,36.40
2019-05-15T13:03:11.051Z,36.37
2019-05-15T13:05:43.423Z,36.37
2019-05-15T13:08:15.755Z,36.46
2019-05-15T13:10:48.756Z,36.39
2019-05-15T13:13:21.461Z,36.39
2019-05-15T13:15:53.852Z,36.39
2019-05-15T13:18:25.930Z,36.44
2019-05-15T13:20:59.598Z,36.51
2019-05-15T13:23:34.395Z,36.41
2019-05-15T13:26:21.560Z,36.41
2019-05-15T13:28:39.887Z,36.43
2019-05-15T13:31:11.709Z,36.43
2019-05-15T13:33:44.166Z,36.34
2019-05-15T13:36:16.364Z,36.29
2019-05-15T13:38:48.348Z,36.12
2019-05-15T13:41:20.859Z,36.12
2019-05-15T13:43:52.929Z,36.04
2019-05-15T13:46:24.986Z,35.95
2019-05-15T13:48:59.170Z,35.92
2019-05-15T13:51:30.802Z,35.89
2019-05-15T13:54:02.931Z,35.88
2019-05-15T13:56:35.070Z,35.88
2019-05-15T13:59:08.057Z,35.87
2019-05-15T14:01:40.690Z,35.76
2019-05-15T14:04:13.190Z,35.76
2019-05-15T14:06:45.171Z,35.80
2019-05-15T14:09:17.228Z,35.80
2019-05-15T14:11:49.834Z,35.76
2019-05-15T14:14:23.201Z,35.76
2019-05-15T14:16:55.291Z,35.65
2019-05-15T14:19:27.984Z,35.65
2019-05-15T14:22:00.129Z,35.61
2019-05-15T14:24:32.257Z,35.61
2019-05-15T14:27:04.242Z,35.63
2019-05-15T14:29:36.391Z,35.52
2019-05-15T14:32:08.549Z,35.52
2019-05-15T14:34:40.909Z,35.55
2019-05-15T14:37:12.816Z,35.55
2019-05-15T14:39:44.919Z,35.50
2019-05-15T14:42:18.658Z,35.51
2019-05-15T14:44:50.518Z,35.51
2019-05-15T14:47:22.634Z,35.43
2019-05-15T14:49:54.520Z,35.41
2019-05-15T14:52:28.020Z,35.40
2019-05-15T14:54:59.916Z,35.39
2019-05-15T14:57:32.304Z,35.39
2019-05-15T15:00:04.165Z,35.43
2019-05-15T15:02:38.819Z,35.36
2019-05-15T15:05:11.729Z,35.30
2019-05-15T15:07:43.574Z,35.24
2019-05-15T15:10:15.595Z,35.24
2019-05-15T15:12:49.937Z,35.22
2019-05-15T15:15:21.421Z,35.26
2019-05-15T15:17:53.332Z,35.26
2019-05-15T15:20:25.704Z,35.15
2019-05-15T15:22:59.387Z,35.15
2019-05-15T15:25:31.380Z,35.14
2019-05-15T15:28:08.169Z,35.14
2019-05-15T15:30:39.243Z,34.98
2019-05-15T15:33:12.135Z,34.98
2019-05-15T15:35:44.324Z,35.09
2019-05-15T15:38:35.052Z,35.09
2019-05-15T15:40:52.716Z,34.98
2019-05-15T15:43:24.915Z,34.84
2019-05-15T15:45:58.057Z,34.84
2019-05-15T15:48:30.103Z,34.90
2019-05-15T15:51:02.735Z,34.78
2019-05-15T15:53:34.470Z,34.68
2019-05-15T15:56:10.651Z,34.68
2019-05-15T15:58:41.662Z,34.87
2019-05-15T16:01:13.721Z,34.93
2019-05-15T16:03:48.421Z,34.93
2019-05-15T16:06:23.820Z,35.09
2019-05-15T16:08:59.714Z,35.41
2019-05-15T16:11:31.806Z,35.41
2019-05-15T16:14:05.114Z,35.18
2019-05-15T16:16:38.066Z,35.43
2019-05-15T16:19:09.817Z,35.43
2019-05-15T16:21:42.240Z,35.20
2019-05-15T16:24:17.772Z,34.82
2019-05-15T16:26:49.853Z,34.82
2019-05-15T16:29:21.472Z,35.27
2019-05-15T16:31:53.506Z,35.14
2019-05-15T16:34:25.132Z,34.96
2019-05-15T16:36:58.558Z,34.96
2019-05-15T16:39:30.355Z,34.81
2019-05-15T16:42:02.308Z,34.94
2019-05-15T16:44:34.077Z,34.89
2019-05-15T16:47:08.243Z,34.93
2019-05-15T16:49:39.359Z,34.82
2019-05-15T16:52:11.365Z,34.64
2019-05-15T16:54:42.968Z,34.64
2019-05-15T16:57:14.568Z,34.63
2019-05-15T16:59:48.030Z,34.58
2019-05-15T17:02:19.857Z,34.58
2019-05-15T17:04:51.703Z,34.62
2019-05-15T17:07:23.626Z,34.57
2019-05-15T17:09:55.190Z,34.35
2019-05-15T17:12:27.826Z,34.50
2019-05-15T17:14:59.795Z,34.32
2019-05-15T17:17:31.484Z,34.32
2019-05-15T17:20:03.186Z,34.34
2019-05-15T17:22:35.245Z,34.34
2019-05-15T17:25:09.200Z,34.26
2019-05-15T17:27:40.663Z,34.51
2019-05-15T17:30:12.504Z,34.18
2019-05-15T17:32:43.933Z,34.18
2019-05-15T17:35:15.753Z,34.09
2019-05-15T17:37:58.123Z,33.75
2019-05-15T17:40:30.208Z,34.03
2019-05-15T17:43:02.644Z,34.19
2019-05-15T17:45:35.013Z,34.19
2019-05-15T17:48:12.217Z,33.94
2019-05-15T17:50:51.747Z,33.94
2019-05-15T17:53:21.232Z,34.09
2019-05-15T17:55:53.098Z,34.07
2019-05-15T17:58:24.725Z,34.16
2019-05-15T18:00:59.410Z,34.06
2019-05-15T18:03:31.405Z,34.09
2019-05-15T18:06:03.234Z,34.08
2019-05-15T18:08:39.032Z,33.92
2019-05-15T18:11:10.965Z,33.92
2019-05-15T18:13:43.118Z,33.69
2019-05-15T18:16:14.879Z,33.53
2019-05-15T18:18:47.913Z,33.53
2019-05-15T18:21:21.211Z,33.57
2019-05-15T18:23:53.887Z,33.56
2019-05-15T18:26:25.992Z,33.50
2019-05-15T18:28:58.777Z,33.33
2019-05-15T18:31:31.387Z,33.31
2019-05-15T18:34:03.903Z,33.31
2019-05-15T18:36:35.710Z,33.09
2019-05-15T18:39:09.240Z,32.86
2019-05-15T18:41:41.133Z,32.86
2019-05-15T18:44:13.139Z,32.78
2019-05-15T18:46:45.146Z,32.78
2019-05-15T18:49:17.997Z,32.78
2019-05-15T18:51:49.821Z,32.57
2019-05-15T18:54:21.510Z,32.66
2019-05-15T18:56:53.575Z,32.66
2019-05-15T18:59:25.655Z,32.81
2019-05-15T19:01:58.667Z,32.81
2019-05-15T19:04:34.300Z,32.80
2019-05-15T19:07:09.251Z,32.85
2019-05-15T19:09:41.536Z,32.85
2019-05-15T19:12:17.694Z,32.86
2019-05-15T19:14:52.826Z,32.91
2019-05-15T19:17:27.568Z,32.91
2019-05-15T19:19:59.550Z,33.19
2019-05-15T19:22:32.425Z,33.07
2019-05-15T19:25:05.892Z,33.05
2019-05-15T19:27:39.067Z,33.05
2019-05-15T19:30:11.913Z,33.08
2019-05-15T19:32:43.995Z,33.00
2019-05-15T19:35:16.012Z,33.03
2019-05-15T19:37:48.899Z,33.03
2019-05-15T19:40:21.765Z,32.99
2019-05-15T19:42:53.681Z,33.08
2019-05-15T19:45:28.027Z,33.08
2019-05-15T19:47:59.095Z,33.10
2019-05-15T19:50:31.215Z,33.10
2019-05-15T19:53:03.224Z,33.10
2019-05-15T19:55:35.333Z,33.10
2019-05-15T19:58:08.769Z,33.14
2019-05-15T20:00:41.166Z,33.05
2019-05-15T20:03:14.198Z,33.11
2019-05-15T20:05:48.568Z,33.33
2019-05-15T20:08:20.912Z,33.13
2019-05-15T20:10:53.251Z,32.86
2019-05-15T20:13:29.005Z,32.86
2019-05-15T20:16:01.704Z,32.96
2019-05-15T20:18:33.965Z,32.96
2019-05-15T20:21:05.658Z,33.12
2019-05-15T20:23:38.216Z,32.71
2019-05-15T20:26:11.521Z,32.80
2019-05-15T20:28:43.752Z,32.80
2019-05-15T20:31:15.871Z,32.95
2019-05-15T20:33:48.396Z,33.27
2019-05-15T20:36:22.262Z,33.27
2019-05-15T20:38:54.000Z,33.11
2019-05-15T20:41:30.127Z,33.01
2019-05-15T20:44:01.760Z,32.95
2019-05-15T20:46:33.995Z,33.06
2019-05-15T20:49:05.848Z,33.02
2019-05-15T20:51:39.021Z,32.93
2019-05-15T20:54:10.901Z,32.98
2019-05-15T20:56:42.794Z,33.02
2019-05-15T20:59:15.378Z,32.98
2019-05-15T21:01:48.298Z,32.94
2019-05-15T21:04:23.589Z,33.02
2019-05-15T21:06:54.360Z,32.65
2019-05-15T21:09:28.410Z,32.73
2019-05-15T21:11:59.653Z,33.04
2019-05-15T21:14:31.667Z,32.97
2019-05-15T21:17:04.694Z,32.97
2019-05-15T21:19:38.584Z,33.00
2019-05-15T21:22:13.735Z,33.00
2019-05-15T21:24:45.725Z,33.06
2019-05-15T21:27:23.425Z,32.67
2019-05-15T21:29:51.662Z,32.97
2019-05-15T21:32:23.585Z,32.92
2019-05-15T21:34:55.214Z,33.03
2019-05-15T21:37:30.411Z,32.80
2019-05-15T21:40:02.171Z,32.78
2019-05-15T21:42:33.784Z,32.68
2019-05-15T21:45:13.629Z,32.68
2019-05-15T21:47:42.427Z,32.76
2019-05-15T21:50:15.368Z,32.57
2019-05-15T21:52:49.391Z,32.55
2019-05-15T21:55:22.017Z,32.55
2019-05-15T21:57:54.005Z,32.44
2019-05-15T22:00:38.281Z,32.49
2019-05-15T22:03:14.704Z,32.52
2019-05-15T22:05:48.686Z,32.47
2019-05-15T22:08:20.272Z,32.25
2019-05-15T22:10:53.170Z,32.55
2019-05-15T22:13:24.942Z,32.25
2019-05-15T22:15:59.219Z,32.22
2019-05-15T22:18:30.265Z,32.22
2019-05-15T22:21:02.367Z,32.29
2019-05-15T22:23:34.083Z,32.29
2019-05-15T22:26:06.421Z,32.29
2019-05-15T22:28:41.420Z,32.38
2019-05-15T22:31:13.536Z,32.42
2019-05-15T22:33:47.814Z,32.31
2019-05-15T22:36:19.185Z,32.10
2019-05-15T22:38:51.379Z,32.10
2019-05-15T22:41:23.218Z,32.24
2019-05-15T22:43:55.058Z,32.57
2019-05-15T22:46:28.871Z,32.43
2019-05-15T22:49:01.807Z,32.37
2019-05-15T22:51:33.896Z,32.32
2019-05-15T22:54:05.870Z,32.31
2019-05-15T22:56:38.314Z,32.31
2019-05-15T22:59:09.948Z,31.97
2019-05-15T23:01:41.903Z,32.24
2019-05-15T23:04:14.019Z,32.08
2019-05-15T23:06:45.913Z,32.13
2019-05-15T23:09:17.886Z,32.03
2019-05-15T23:11:49.697Z,32.03
2019-05-15T23:14:21.514Z,32.14
2019-05-15T23:16:53.395Z,32.14
2019-05-15T23:19:25.184Z,32.05
2019-05-15T23:21:59.074Z,31.96
2019-05-15T23:24:31.730Z,31.96
2019-05-15T23:27:03.780Z,32.00
2019-05-15T23:29:35.659Z,31.71
2019-05-15T23:32:07.819Z,32.03
2019-05-15T23:34:39.917Z,31.84
2019-05-15T23:37:11.824Z,31.84
2019-05-15T23:39:43.605Z,32.02
2019-05-15T23:42:18.283Z,31.83
2019-05-15T23:44:50.004Z,31.83
2019-05-15T23:47:21.891Z,31.41
2019-05-15T23:49:53.615Z,31.37
2019-05-15T23:52:25.478Z,31.70
2019-05-15T23:54:58.953Z,31.56
2019-05-15T23:57:31.659Z,31.56
